Time;durP1;ratioP1;P1;durP2;ratioP2;P2;SDS_P1;SDS_P2;PMS_P1;PMS_P2;Temp;Humidity;BMP_temperature;BMP_pressure;BME280_temperature;BME280_humidity;BME280_pressure;Samples;Min_cycle;Max_cycle;Signal;HPM_P1;HPM_P2
2022/07/16 00:03:10;;;;;;;4.50;1.60;;;;;;;12.97;66.00;97020.20;108576;1264;22780;-81
2022/07/16 00:05:41;;;;;;;4.70;1.70;;;;;;;12.88;66.07;97020.42;108591;1262;118734;-81
2022/07/16 00:08:15;;;;;;;3.40;1.80;;;;;;;12.88;65.59;97016.85;108758;1264;24312;-81
2022/07/16 00:10:49;;;;;;;5.20;1.40;;;;;;;12.97;65.34;97012.55;108759;1264;22556;-81
2022/07/16 00:13:23;;;;;;;5.70;1.60;;;;;;;13.05;65.08;97010.05;108783;1264;22700;-81
2022/07/16 00:15:57;;;;;;;4.50;1.70;;;;;;;13.13;64.96;97005.41;107152;1264;2116718;-81
2022/07/16 00:21:19;;;;;;;3.80;1.50;;;;;;;13.18;64.61;96996.20;108838;1264;25001;-81
2022/07/16 00:23:55;;;;;;;3.20;1.70;;;;;;;13.09;64.80;96991.81;108867;1264;25177;-81
2022/07/16 00:26:33;;;;;;;3.00;1.30;;;;;;;12.88;65.04;96986.04;108727;1264;63166;-81
2022/07/16 00:29:08;;;;;;;3.80;1.40;;;;;;;12.67;65.50;96990.64;108834;1263;22545;-81
2022/07/16 00:31:50;;;;;;;3.30;1.60;;;;;;;12.48;66.04;96988.74;108799;1264;24164;-81
2022/07/16 00:34:23;;;;;;;3.50;1.50;;;;;;;12.34;66.34;96987.38;108827;1263;22553;-81
2022/07/16 00:36:57;;;;;;;3.20;1.50;;;;;;;12.33;66.56;96985.00;108617;1264;77999;-81
2022/07/16 00:39:31;;;;;;;3.00;1.70;;;;;;;12.35;66.65;96985.83;108750;1264;23906;-81
2022/07/16 00:42:11;;;;;;;5.30;1.50;;;;;;;12.39;66.37;96980.27;108761;1264;23430;-81
2022/07/16 00:44:47;;;;;;;2.30;1.10;;;;;;;12.39;66.49;96979.10;108779;1264;25297;-81
2022/07/16 00:47:23;;;;;;;3.30;1.40;;;;;;;12.35;66.32;96975.83;108618;1264;81443;-81
2022/07/16 00:49:57;;;;;;;3.20;1.20;;;;;;;12.41;66.31;96974.98;108772;1264;24079;-81
2022/07/16 00:52:28;;;;;;;3.80;1.40;;;;;;;12.46;66.20;96971.37;108775;1264;23996;-81
2022/07/16 00:55:02;;;;;;;4.30;1.40;;;;;;;12.43;66.17;96973.41;108721;1264;22593;-81
2022/07/16 00:57:38;;;;;;;2.70;1.50;;;;;;;12.29;66.36;96971.38;108766;1264;22985;-81
2022/07/16 01:00:14;;;;;;;3.10;1.80;;;;;;;12.08;66.82;96968.94;108754;1264;25505;-81
2022/07/16 01:02:46;;;;;;;2.80;1.20;;;;;;;11.89;67.13;96966.54;108761;1264;22567;-81
2022/07/16 01:05:21;;;;;;;4.90;2.00;;;;;;;11.69;67.78;96966.17;108585;1264;94916;-81
2022/07/16 01:07:56;;;;;;;3.40;1.70;;;;;;;11.54;67.68;96962.40;108881;1264;22528;-81
2022/07/16 01:10:31;;;;;;;4.10;1.40;;;;;;;11.55;67.49;96959.59;108881;1264;22678;-81
2022/07/16 01:13:03;;;;;;;3.90;1.70;;;;;;;11.53;67.30;96957.41;108843;1264;22591;-81
2022/07/16 01:15:39;;;;;;;3.10;1.70;;;;;;;11.51;67.19;96953.70;107253;1264;2013286;-81
2022/07/16 01:18:26;;;;;;;3.40;1.80;;;;;;;11.57;66.93;96953.41;108883;1264;24194;-81
2022/07/16 01:21:01;;;;;;;3.60;1.40;;;;;;;11.53;66.64;96950.35;108857;1264;22537;-81
2022/07/16 01:23:38;;;;;;;3.40;1.80;;;;;;;11.48;66.61;96947.52;108855;1264;22520;-81
2022/07/16 01:26:13;;;;;;;4.90;1.90;;;;;;;11.49;66.51;96948.77;107369;1264;1799735;-81
2022/07/16 01:28:45;;;;;;;4.00;1.80;;;;;;;11.47;66.49;96945.87;108808;1264;22551;-81
2022/07/16 01:31:19;;;;;;;5.50;2.30;;;;;;;11.38;66.44;96947.31;108801;1264;22529;-81
2022/07/16 01:36:39;;;;;;;4.00;1.60;;;;;;;11.27;66.76;96941.00;107067;1264;2038423;-81
2022/07/16 01:39:10;;;;;;;3.90;1.50;;;;;;;11.25;66.69;96935.16;108848;1264;22574;-81
2022/07/16 01:41:49;;;;;;;2.50;1.50;;;;;;;11.29;66.93;96935.80;108888;1262;22591;-81
2022/07/16 01:44:26;;;;;;;3.10;1.70;;;;;;;11.27;67.03;96937.61;108860;1261;22555;-81
2022/07/16 01:47:13;;;;;;;4.20;1.60;;;;;;;11.19;66.93;96937.70;108679;1264;79481;-81
2022/07/16 01:49:47;;;;;;;4.00;1.80;;;;;;;11.13;67.10;96938.95;108826;1264;22650;-81
2022/07/16 01:52:22;;;;;;;3.70;1.80;;;;;;;11.05;67.29;96940.21;108786;1264;22606;-81
2022/07/16 01:54:59;;;;;;;5.60;2.20;;;;;;;10.99;67.17;96935.89;108755;1264;22621;-81
2022/07/16 01:57:37;;;;;;;3.20;1.50;;;;;;;11.09;67.11;96936.04;108711;1264;79080;-81
2022/07/16 02:00:20;;;;;;;4.10;1.90;;;;;;;11.15;67.14;96936.77;108876;1262;22555;-81
2022/07/16 02:02:56;;;;;;;2.40;1.70;;;;;;;11.24;66.98;96939.73;108865;1264;23988;-81
2022/07/16 02:05:33;;;;;;;2.40;1.80;;;;;;;11.30;67.10;96933.14;107159;1264;2015271;-81
2022/07/16 02:08:04;;;;;;;3.20;1.70;;;;;;;11.40;67.10;96936.10;108828;1264;22641;-81
2022/07/16 02:10:40;;;;;;;5.30;2.10;;;;;;;11.46;67.06;96936.86;108872;1262;22526;-82
2022/07/16 02:13:23;;;;;;;4.70;1.90;;;;;;;11.55;67.09;96933.77;108899;1264;22549;-81
2022/07/16 02:15:54;;;;;;;5.70;2.10;;;;;;;11.62;66.89;96930.27;108711;1264;91861;-82
2022/07/16 02:18:29;;;;;;;4.00;1.80;;;;;;;11.66;66.74;96928.84;108899;1264;25267;-82
2022/07/16 02:21:03;;;;;;;4.10;1.60;;;;;;;11.70;66.49;96928.89;108867;1264;22854;-82
2022/07/16 02:23:36;;;;;;;3.80;1.70;;;;;;;11.69;66.16;96928.52;108866;1264;24383;-82
2022/07/16 02:26:08;;;;;;;3.20;1.80;;;;;;;11.68;65.86;96927.56;108701;1262;97388;-82
2022/07/16 02:28:43;;;;;;;3.00;1.80;;;;;;;11.64;65.81;96928.02;108870;1262;25837;-82
2022/07/16 02:31:19;;;;;;;6.90;1.90;;;;;;;11.55;65.86;96926.28;108884;1264;22791;-82
2022/07/16 02:33:56;;;;;;;4.50;1.90;;;;;;;11.42;65.92;96924.30;108841;1264;23449;-82
2022/07/16 02:36:32;;;;;;;3.20;1.80;;;;;;;11.28;66.14;96921.83;108562;1264;135304;-82
2022/07/16 02:39:06;;;;;;;4.40;2.00;;;;;;;11.26;66.27;96920.55;108860;1263;22553;-82
2022/07/16 02:41:38;;;;;;;1.80;1.40;;;;;;;11.20;66.21;96921.71;108861;1264;22512;-82
2022/07/16 02:44:12;;;;;;;5.30;1.80;;;;;;;11.17;66.27;96921.89;108893;1264;23095;-82
2022/07/16 02:46:48;;;;;;;3.50;1.80;;;;;;;11.21;66.19;96923.98;108668;1264;77383;-82
2022/07/16 02:49:22;;;;;;;3.30;1.40;;;;;;;11.20;66.02;96927.45;108856;1264;25273;-81
2022/07/16 02:51:54;;;;;;;3.80;1.50;;;;;;;11.21;66.10;96928.40;108885;1263;22549;-82
2022/07/16 02:54:27;;;;;;;2.70;1.40;;;;;;;11.17;66.16;96928.95;108789;1264;22671;-82
2022/07/16 02:56:58;;;;;;;5.50;1.90;;;;;;;11.15;66.40;96931.98;107344;1262;1736913;-82
2022/07/16 02:59:35;;;;;;;3.10;1.50;;;;;;;11.14;66.56;96933.39;108850;1264;22690;-82
2022/07/16 03:02:08;;;;;;;2.70;1.70;;;;;;;11.16;66.93;96930.98;108858;1264;24858;-82
2022/07/16 03:04:42;;;;;;;4.50;1.80;;;;;;;11.20;67.32;96931.06;108859;1264;22529;-82
2022/07/16 03:07:13;;;;;;;4.00;2.00;;;;;;;11.21;67.71;96933.02;108672;1263;97083;-82
2022/07/16 03:09:47;;;;;;;3.30;2.00;;;;;;;11.18;67.97;96931.81;108754;1264;22523;-82
2022/07/16 03:12:23;;;;;;;3.50;2.10;;;;;;;11.20;68.43;96932.70;108889;1263;22533;-82
2022/07/16 03:14:59;;;;;;;4.40;1.80;;;;;;;11.23;68.56;96933.42;108851;1262;24238;-82
2022/07/16 03:17:36;;;;;;;3.80;2.10;;;;;;;11.29;68.75;96928.36;108623;1264;70211;-82
2022/07/16 03:20:12;;;;;;;7.40;1.90;;;;;;;11.43;69.02;96930.34;108786;1264;22535;-82
2022/07/16 03:22:55;;;;;;;3.30;2.10;;;;;;;11.62;69.03;96933.02;108775;1264;22552;-83
2022/07/16 03:25:30;;;;;;;3.90;2.20;;;;;;;11.84;68.63;96936.02;108597;1263;73187;-82
2022/07/16 03:28:05;;;;;;;4.90;2.10;;;;;;;12.05;68.28;96934.05;108866;1264;22565;-82
2022/07/16 03:30:38;;;;;;;5.70;2.10;;;;;;;12.22;67.86;96933.73;108780;1264;22534;-82
2022/07/16 03:33:11;;;;;;;3.10;2.00;;;;;;;12.34;67.66;96934.09;108832;1264;22705;-82
2022/07/16 03:35:44;;;;;;;4.00;2.00;;;;;;;12.42;67.64;96932.85;106544;1261;2800315;-82
2022/07/16 03:41:04;;;;;;;4.30;2.20;;;;;;;12.52;67.52;96930.40;108886;1264;22555;-82
2022/07/16 03:43:40;;;;;;;3.40;2.10;;;;;;;12.55;67.60;96932.73;108871;1264;24318;-82
2022/07/16 03:46:26;;;;;;;4.10;2.10;;;;;;;12.58;67.60;96934.28;108634;1262;74741;-82
2022/07/16 03:49:00;;;;;;;3.80;2.10;;;;;;;12.57;67.59;96940.52;108829;1264;22552;-82
2022/07/16 03:51:34;;;;;;;3.50;2.00;;;;;;;12.58;67.45;96936.25;108803;1264;27471;-82
2022/07/16 03:54:15;;;;;;;4.70;2.10;;;;;;;12.60;67.18;96938.84;108745;1264;22578;-82
2022/07/16 03:56:50;;;;;;;2.60;1.80;;;;;;;12.59;67.10;96940.66;108676;1263;107749;-82
2022/07/16 03:59:21;;;;;;;4.00;1.80;;;;;;;12.59;66.76;96938.16;108880;1262;22532;-81
2022/07/16 04:01:56;;;;;;;5.90;2.10;;;;;;;12.59;66.55;96938.41;108913;1264;22523;-82
2022/07/16 04:04:32;;;;;;;3.10;1.90;;;;;;;12.60;66.55;96936.70;108921;1264;24239;-82
2022/07/16 04:07:08;;;;;;;3.90;2.10;;;;;;;12.62;66.37;96941.37;108714;1264;72218;-82
2022/07/16 04:09:42;;;;;;;4.20;2.20;;;;;;;12.63;66.32;96940.28;108838;1264;23780;-82
2022/07/16 04:12:27;;;;;;;4.30;1.90;;;;;;;12.65;66.36;96944.25;108852;1264;25264;-82
2022/07/16 04:15:05;;;;;;;5.30;2.20;;;;;;;12.76;66.48;96942.59;108870;1264;22530;-81
2022/07/16 04:17:36;;;;;;;5.00;2.10;;;;;;;12.92;66.24;96939.42;108865;1264;22686;-81
2022/07/16 04:20:16;;;;;;;3.30;2.00;;;;;;;13.02;65.94;96938.55;108897;1264;25238;-81
2022/07/16 04:22:55;;;;;;;4.10;2.30;;;;;;;13.02;65.52;96935.80;108875;1264;22539;-81
2022/07/16 04:25:29;;;;;;;3.20;2.10;;;;;;;13.03;65.72;96937.85;108687;1264;89454;-81
2022/07/16 04:28:10;;;;;;;4.10;2.20;;;;;;;13.10;65.52;96938.26;108858;1264;25325;-82
2022/07/16 04:30:45;;;;;;;4.70;2.10;;;;;;;13.14;65.46;96934.21;108867;1264;22707;-81
2022/07/16 04:33:22;;;;;;;5.40;2.20;;;;;;;13.20;65.32;96935.96;108851;1264;22565;-81
2022/07/16 04:35:57;;;;;;;5.40;2.20;;;;;;;13.30;65.38;96938.50;105384;1264;4325705;-81
2022/07/16 04:38:28;;;;;;;5.20;2.60;;;;;;;13.44;65.10;96933.67;108855;1264;22535;-81
2022/07/16 04:41:01;;;;;;;4.50;2.10;;;;;;;13.57;65.09;96936.20;108750;1264;26571;-81
2022/07/16 04:43:33;;;;;;;4.60;2.00;;;;;;;13.56;64.23;96934.94;108877;1264;24204;-81
2022/07/16 04:46:07;;;;;;;4.50;2.20;;;;;;;13.56;64.61;96938.23;106842;1264;2517721;-81
2022/07/16 04:48:41;;;;;;;3.10;2.00;;;;;;;13.78;64.60;96930.98;108866;1264;22615;-81
2022/07/16 04:51:12;;;;;;;5.30;2.40;;;;;;;14.01;63.96;96929.75;108836;1264;22539;-81
2022/07/16 04:53:48;;;;;;;4.40;2.40;;;;;;;14.09;63.23;96932.35;108871;1261;22943;-81
2022/07/16 04:56:26;;;;;;;3.00;1.90;;;;;;;14.23;63.41;96932.80;108611;1264;87843;-81
2022/07/16 04:59:01;;;;;;;3.70;1.90;;;;;;;14.39;62.77;96930.23;108882;1263;26040;-81
2022/07/16 05:01:47;;;;;;;5.60;1.80;;;;;;;14.45;62.60;96925.60;108929;1264;22549;-81
2022/07/16 05:04:20;;;;;;;3.60;2.20;;;;;;;14.52;62.30;96925.59;108880;1264;22543;-81
2022/07/16 05:06:51;;;;;;;4.70;2.20;;;;;;;14.69;62.57;96921.04;108708;1262;85595;-82
2022/07/16 05:09:26;;;;;;;4.10;2.10;;;;;;;14.90;62.60;96921.17;108851;1264;22574;-82
2022/07/16 05:12:01;;;;;;;4.90;2.40;;;;;;;15.14;62.03;96917.84;108835;1263;22645;-81
2022/07/16 05:14:33;;;;;;;4.80;2.00;;;;;;;15.55;61.90;96918.61;108874;1264;23247;-81
2022/07/16 05:17:07;;;;;;;4.10;2.30;;;;;;;17.09;61.56;96920.57;108615;1262;91540;-82
2022/07/16 05:19:41;;;;;;;3.00;2.20;;;;;;;19.54;59.22;96918.63;108767;1264;22520;-82
2022/07/16 05:22:14;;;;;;;3.80;2.00;;;;;;;21.72;55.08;96915.46;108810;1263;22552;-82
2022/07/16 05:24:52;;;;;;;4.90;2.10;;;;;;;23.39;51.09;96912.75;108783;1264;22564;-82
2022/07/16 05:27:28;;;;;;;3.30;2.00;;;;;;;24.74;47.88;96905.69;107002;1264;2216534;-83
2022/07/16 05:30:02;;;;;;;5.20;2.10;;;;;;;26.05;45.86;96907.91;108788;1263;24243;-83
2022/07/16 05:32:38;;;;;;;3.30;2.00;;;;;;;27.11;43.28;96911.54;108769;1264;22572;-83
2022/07/16 05:35:15;;;;;;;3.10;1.70;;;;;;;27.35;40.26;96911.56;108622;1264;80749;-83
2022/07/16 05:37:50;;;;;;;4.50;2.10;;;;;;;27.99;39.61;96907.05;108840;1264;22523;-83
2022/07/16 05:40:26;;;;;;;3.50;1.60;;;;;;;29.07;38.77;96905.56;108881;1264;22509;-83
2022/07/16 05:42:57;;;;;;;2.10;1.50;;;;;;;29.55;36.32;96906.05;108894;1262;22546;-83
2022/07/16 05:45:37;;;;;;;3.60;1.70;;;;;;;29.90;35.68;96907.64;108705;1264;85118;-83
2022/07/16 05:48:09;;;;;;;3.50;1.50;;;;;;;30.40;34.58;96906.38;108817;1264;22905;-83
2022/07/16 05:50:46;;;;;;;5.50;1.90;;;;;;;30.77;33.45;96904.02;108770;1264;23288;-83
2022/07/16 05:53:24;;;;;;;4.60;1.70;;;;;;;31.50;33.19;96905.77;108765;1264;25053;-83
2022/07/16 05:55:57;;;;;;;3.50;1.60;;;;;;;32.20;32.24;96903.38;107027;1264;2113236;-83
2022/07/16 05:58:32;;;;;;;4.30;1.40;;;;;;;32.98;31.32;96898.92;108792;1264;22554;-84
2022/07/16 06:01:07;;;;;;;3.50;1.70;;;;;;;33.74;31.05;96898.57;108657;1264;22654;-84
2022/07/16 06:03:43;;;;;;;4.70;2.10;;;;;;;34.36;30.05;96896.02;108767;1264;23361;-84
2022/07/16 06:06:14;;;;;;;5.70;1.50;;;;;;;34.59;28.89;96893.99;108537;1264;145987;-83
2022/07/16 06:08:49;;;;;;;4.50;1.30;;;;;;;34.79;27.89;96896.74;108812;1264;26288;-84
2022/07/16 06:11:34;;;;;;;3.40;1.50;;;;;;;35.01;27.40;96897.47;108853;1264;22520;-83
2022/07/16 06:14:10;;;;;;;3.30;1.50;;;;;;;34.72;26.78;96901.17;108828;1264;22618;-81
2022/07/16 06:16:57;;;;;;;3.00;1.30;;;;;;;34.92;27.39;96902.33;108673;1264;79241;-83
2022/07/16 06:19:28;;;;;;;3.80;1.30;;;;;;;36.06;26.67;96912.30;108851;1264;22548;-83
2022/07/16 06:22:02;;;;;;;2.50;1.10;;;;;;;36.76;26.17;96911.59;108838;1263;22548;-82
2022/07/16 06:24:36;;;;;;;2.40;1.30;;;;;;;37.68;24.55;96907.71;108896;1264;24593;-82
2022/07/16 06:27:08;;;;;;;2.70;1.40;;;;;;;37.64;23.74;96903.66;107137;1264;2047996;-82
2022/07/16 06:29:49;;;;;;;2.10;1.10;;;;;;;37.32;22.47;96903.31;108785;1264;23108;-82
2022/07/16 06:32:22;;;;;;;4.90;1.50;;;;;;;37.12;23.11;96904.89;108793;1264;22689;-82
2022/07/16 06:34:57;;;;;;;4.20;1.30;;;;;;;37.25;23.01;96899.48;108641;1264;22523;-84
2022/07/16 06:37:33;;;;;;;2.30;1.00;;;;;;;37.21;22.37;96903.48;107693;1264;1439677;-84
2022/07/16 06:40:32;;;;;;;3.60;1.30;;;;;;;37.79;22.88;96900.11;108879;1264;22558;-84
2022/07/16 06:43:04;;;;;;;3.10;1.10;;;;;;;38.46;21.99;96897.21;108853;1263;22565;-84
2022/07/16 06:45:40;;;;;;;2.70;1.40;;;;;;;38.20;21.18;96898.57;108672;1264;106623;-84
2022/07/16 06:48:13;;;;;;;3.70;1.20;;;;;;;37.99;21.60;96896.55;108793;1264;22547;-84
2022/07/16 06:50:45;;;;;;;3.50;1.40;;;;;;;38.54;20.92;96893.65;108764;1264;22567;-84
2022/07/16 06:53:17;;;;;;;3.10;1.50;;;;;;;38.85;21.18;96896.21;108822;1264;22543;-84
2022/07/16 06:55:55;;;;;;;4.10;1.10;;;;;;;39.11;20.32;96894.60;108548;1264;142864;-84
2022/07/16 06:58:28;;;;;;;3.60;1.30;;;;;;;35.78;20.18;96894.22;108852;1264;24319;-84
2022/07/16 07:01:01;;;;;;;2.70;1.10;;;;;;;32.16;21.86;96892.95;108857;1264;24270;-84
2022/07/16 07:03:38;;;;;;;2.90;1.20;;;;;;;29.31;23.62;96896.89;108870;1262;22522;-84
2022/07/16 07:06:10;;;;;;;2.10;1.10;;;;;;;26.93;24.95;96900.91;108631;1264;86478;-83
2022/07/16 07:08:43;;;;;;;4.10;1.10;;;;;;;24.81;26.94;96897.59;108766;1264;23322;-83
2022/07/16 07:11:19;;;;;;;2.40;1.10;;;;;;;24.50;28.07;96894.61;108775;1264;25400;-83
2022/07/16 07:13:51;;;;;;;3.00;1.00;;;;;;;23.47;29.06;96896.77;108792;1264;22519;-83
2022/07/16 07:16:26;;;;;;;2.50;1.10;;;;;;;23.42;30.85;96904.63;108574;1264;94432;-83
2022/07/16 07:18:58;;;;;;;3.10;1.10;;;;;;;23.01;30.30;96901.91;108770;1264;22536;-83
2022/07/16 07:21:29;;;;;;;3.80;1.40;;;;;;;22.09;31.97;96903.95;108749;1261;22553;-82
2022/07/16 07:24:03;;;;;;;2.90;1.20;;;;;;;24.81;31.95;96895.34;108824;1263;22531;-83
2022/07/16 07:26:42;;;;;;;2.70;1.10;;;;;;;27.50;28.81;96891.14;108562;1264;105114;-83
2022/07/16 07:29:18;;;;;;;3.70;1.20;;;;;;;28.04;27.10;96888.05;108834;1264;24242;-83
2022/07/16 07:31:50;;;;;;;5.90;1.00;;;;;;;25.87;27.64;96893.80;108836;1262;22682;-83
2022/07/16 07:34:26;;;;;;;3.00;1.00;;;;;;;25.02;28.29;96896.61;108773;1264;22533;-83
2022/07/16 07:36:57;;;;;;;3.70;1.20;;;;;;;24.78;29.42;96893.52;107281;1264;1700488;-84
2022/07/16 07:39:32;;;;;;;3.10;1.10;;;;;;;24.97;29.94;96890.34;108866;1264;26431;-83
2022/07/16 07:42:04;;;;;;;3.60;1.20;;;;;;;27.18;29.38;96894.13;108859;1263;22511;-84
2022/07/16 07:44:38;;;;;;;4.70;1.40;;;;;;;29.32;26.72;96892.67;108899;1264;22576;-84
2022/07/16 07:47:10;;;;;;;2.30;1.30;;;;;;;30.06;25.79;96890.05;108361;1264;212341;-84
2022/07/16 07:49:44;;;;;;;3.50;1.40;;;;;;;28.14;25.99;96889.15;108870;1263;22555;-83
2022/07/16 07:52:16;;;;;;;4.20;1.40;;;;;;;27.23;27.27;96891.58;108850;1264;22576;-84
2022/07/16 07:54:47;;;;;;;2.90;1.20;;;;;;;27.88;26.89;96891.42;108876;1263;24021;-83
2022/07/16 07:57:22;;;;;;;3.50;1.20;;;;;;;26.23;27.35;96890.06;108688;1264;67526;-83
2022/07/16 07:59:54;;;;;;;1.80;0.90;;;;;;;26.90;28.73;96889.55;108791;1264;22602;-84
2022/07/16 08:02:26;;;;;;;3.70;1.00;;;;;;;28.22;26.78;96880.95;108804;1264;22556;-84
2022/07/16 08:05:00;;;;;;;2.50;1.10;;;;;;;26.53;27.36;96886.02;108831;1264;22549;-84
2022/07/16 08:07:32;;;;;;;2.40;1.40;;;;;;;26.97;28.35;96886.76;108678;1264;111129;-84
2022/07/16 08:10:08;;;;;;;1.50;1.30;;;;;;;28.78;27.57;96879.21;108844;1264;22536;-84
2022/07/16 08:12:40;;;;;;;2.90;1.20;;;;;;;30.66;27.56;96875.13;108773;1264;22551;-84
2022/07/16 08:15:15;;;;;;;2.30;0.90;;;;;;;32.31;25.17;96875.86;108678;1264;72453;-84
2022/07/16 08:17:46;;;;;;;3.80;1.30;;;;;;;30.17;24.28;96881.29;108851;1263;22536;-84
2022/07/16 08:20:22;;;;;;;3.90;1.10;;;;;;;27.08;26.10;96879.61;108869;1263;22520;-83
2022/07/16 08:22:55;;;;;;;3.60;1.00;;;;;;;25.03;28.82;96877.40;108836;1264;22550;-83
2022/07/16 08:25:45;;;;;;;2.50;1.30;;;;;;;23.79;30.45;96877.33;108715;1264;73356;-82
2022/07/16 08:28:20;;;;;;;4.60;1.80;;;;;;;25.11;30.49;96871.14;108892;1264;25361;-83
2022/07/16 08:30:56;;;;;;;2.50;1.40;;;;;;;25.01;29.55;96871.65;108875;1264;22537;-83
2022/07/16 08:33:28;;;;;;;3.70;1.20;;;;;;;24.49;29.81;96877.00;108862;1264;22632;-82
2022/07/16 08:36:05;;;;;;;2.70;1.30;;;;;;;23.69;31.19;96876.52;108689;1264;62261;-83
2022/07/16 08:38:37;;;;;;;2.80;1.30;;;;;;;23.83;30.84;96873.17;108847;1263;22523;-83
2022/07/16 08:41:15;;;;;;;3.10;1.20;;;;;;;24.83;30.59;96866.94;108796;1264;22576;-83
2022/07/16 08:43:48;;;;;;;3.10;1.30;;;;;;;24.59;31.08;96866.58;108784;1264;22525;-83
2022/07/16 08:46:25;;;;;;;3.60;1.30;;;;;;;26.46;30.67;96861.51;108666;1264;70352;-84
2022/07/16 08:48:57;;;;;;;3.40;1.10;;;;;;;26.15;28.25;96867.31;108809;1264;22705;-83
2022/07/16 08:51:38;;;;;;;2.70;1.30;;;;;;;24.69;30.39;96864.80;108810;1264;22563;-83
2022/07/16 08:54:15;;;;;;;2.80;1.00;;;;;;;25.10;31.04;96858.04;108829;1264;22605;-83
2022/07/16 08:56:47;;;;;;;2.10;1.10;;;;;;;25.36;30.31;96859.49;107292;1264;1799431;-83
2022/07/16 08:59:29;;;;;;;3.20;0.90;;;;;;;25.33;30.41;96861.19;108781;1264;22523;-83
2022/07/16 09:02:01;;;;;;;3.00;1.10;;;;;;;24.16;30.91;96863.86;108763;1264;22522;-83
2022/07/16 09:04:33;;;;;;;2.20;1.10;;;;;;;23.29;32.11;96860.38;108820;1264;22542;-83
2022/07/16 09:07:05;;;;;;;2.80;1.20;;;;;;;23.92;32.05;96858.33;108584;1264;70485;-83
2022/07/16 09:09:38;;;;;;;2.90;1.20;;;;;;;23.95;32.31;96856.77;108662;1264;24233;-83
2022/07/16 09:12:09;;;;;;;3.80;1.10;;;;;;;23.13;32.64;96856.93;108764;1264;25376;-83
2022/07/16 09:14:46;;;;;;;2.60;1.20;;;;;;;22.52;33.83;96858.14;108766;1264;22615;-83
2022/07/16 09:17:20;;;;;;;3.00;0.90;;;;;;;22.01;34.72;96859.86;108705;1264;73440;-83
2022/07/16 09:19:52;;;;;;;2.10;1.10;;;;;;;21.93;35.74;96858.39;108836;1264;22549;-83
2022/07/16 09:22:30;;;;;;;3.50;1.60;;;;;;;21.90;36.13;96859.86;108843;1263;23875;-83
2022/07/16 09:25:04;;;;;;;2.30;1.20;;;;;;;22.04;36.47;96860.79;108830;1264;22548;-83
2022/07/16 09:27:41;;;;;;;1.90;1.10;;;;;;;22.08;35.78;96855.02;108641;1264;22545;-83
2022/07/16 09:30:25;;;;;;;4.80;1.70;;;;;;;21.79;35.87;96854.77;108651;1264;22631;-82
2022/07/16 09:33:12;;;;;;;2.50;1.20;;;;;;;21.19;36.24;96848.29;108841;1264;22520;-82
2022/07/16 09:35:47;;;;;;;4.10;1.70;;;;;;;20.80;37.12;96855.41;107154;1264;1991324;-82
2022/07/16 09:38:22;;;;;;;4.80;1.40;;;;;;;20.51;38.10;96855.06;108833;1264;22654;-82
2022/07/16 09:40:55;;;;;;;4.90;1.40;;;;;;;20.44;38.54;96854.55;108837;1264;23950;-82
2022/07/16 09:43:30;;;;;;;2.80;1.50;;;;;;;20.49;38.20;96850.14;108845;1264;22526;-82
2022/07/16 09:46:06;;;;;;;3.70;1.50;;;;;;;20.67;38.27;96853.16;108630;1264;134260;-82
2022/07/16 09:48:38;;;;;;;3.00;1.40;;;;;;;21.18;38.45;96853.42;108862;1263;22529;-82
2022/07/16 09:51:19;;;;;;;3.90;1.30;;;;;;;21.36;37.40;96853.95;108845;1264;25353;-82
2022/07/16 09:53:55;;;;;;;2.30;1.30;;;;;;;21.32;37.90;96855.30;108836;1264;22549;-82
2022/07/16 09:56:29;;;;;;;3.50;1.30;;;;;;;21.17;37.85;96852.93;108657;1264;125119;-83
2022/07/16 09:59:02;;;;;;;3.10;1.50;;;;;;;21.05;37.77;96853.25;108866;1264;24260;-82
2022/07/16 10:01:34;;;;;;;2.90;1.40;;;;;;;20.84;37.81;96854.63;108837;1264;22540;-82
2022/07/16 10:04:06;;;;;;;4.20;1.50;;;;;;;20.62;38.52;96853.99;108839;1264;22555;-83
2022/07/16 10:06:38;;;;;;;2.60;1.20;;;;;;;20.40;38.35;96854.30;107210;1261;2076472;-83
2022/07/16 10:09:12;;;;;;;3.10;1.50;;;;;;;20.22;38.57;96852.23;108849;1263;23860;-83
2022/07/16 10:11:45;;;;;;;3.60;1.60;;;;;;;20.31;39.19;96848.91;108857;1264;22583;-83
2022/07/16 10:14:17;;;;;;;2.70;1.70;;;;;;;20.36;39.23;96853.38;108880;1264;23879;-83
2022/07/16 10:16:50;;;;;;;2.80;1.40;;;;;;;20.31;39.36;96850.39;108642;1263;93409;-83
2022/07/16 10:19:34;;;;;;;2.20;1.40;;;;;;;20.09;39.80;96850.02;108801;1263;22533;-83
2022/07/16 10:22:29;;;;;;;2.70;1.50;;;;;;;19.78;40.22;96854.95;108816;1264;24034;-83
2022/07/16 10:25:01;;;;;;;2.10;1.30;;;;;;;19.55;40.84;96855.21;108679;1263;25413;-83
2022/07/16 10:27:38;;;;;;;5.70;1.80;;;;;;;19.48;41.47;96854.20;108648;1264;117674;-83
2022/07/16 10:30:18;;;;;;;3.70;1.60;;;;;;;19.52;41.84;96848.58;108779;1264;22588;-83
2022/07/16 10:33:16;;;;;;;4.40;1.70;;;;;;;19.66;42.05;96850.78;108773;1264;24222;-82
2022/07/16 10:36:04;;;;;;;3.20;1.50;;;;;;;19.86;42.13;96845.71;108527;1264;74907;-82
2022/07/16 10:38:37;;;;;;;4.40;2.20;;;;;;;19.86;42.22;96844.64;108817;1264;22556;-82
2022/07/16 10:41:13;;;;;;;5.30;1.50;;;;;;;19.82;41.59;96842.42;108809;1264;23057;-82
2022/07/16 10:44:13;;;;;;;2.20;1.10;;;;;;;19.62;41.03;96840.41;108857;1263;22526;-82
2022/07/16 10:46:59;;;;;;;3.00;1.50;;;;;;;19.52;41.01;96838.79;108667;1264;82575;-82
2022/07/16 10:49:38;;;;;;;3.50;1.70;;;;;;;19.61;41.70;96831.84;108872;1264;22795;-83
2022/07/16 10:52:15;;;;;;;3.80;1.50;;;;;;;19.76;41.03;96827.30;108831;1264;22697;-82
2022/07/16 10:55:07;;;;;;;5.10;1.80;;;;;;;19.89;40.91;96827.75;108836;1264;23352;-82
2022/07/16 10:57:46;;;;;;;4.50;1.40;;;;;;;19.98;40.94;96826.73;108851;1264;22615;-82
2022/07/16 11:00:21;;;;;;;3.80;1.50;;;;;;;20.17;41.03;96825.82;108540;1264;370295;-83
2022/07/16 11:03:00;;;;;;;3.30;1.60;;;;;;;20.27;40.52;96821.77;108833;1264;23782;-82
2022/07/16 11:05:38;;;;;;;5.20;2.00;;;;;;;20.21;40.66;96824.27;106625;1264;2827741;-83
2022/07/16 11:08:13;;;;;;;4.30;1.80;;;;;;;20.32;40.78;96823.64;108848;1264;22529;-82
2022/07/16 11:10:49;;;;;;;3.50;1.50;;;;;;;20.45;41.00;96821.02;108835;1264;22539;-82
2022/07/16 11:13:27;;;;;;;3.90;1.60;;;;;;;20.33;40.44;96822.98;108834;1264;22530;-82
2022/07/16 11:16:14;;;;;;;4.10;1.60;;;;;;;20.14;40.40;96824.45;108702;1264;57933;-82
2022/07/16 11:18:54;;;;;;;4.70;2.10;;;;;;;20.09;41.16;96828.56;108778;1264;23915;-82
2022/07/16 11:21:53;;;;;;;2.60;1.50;;;;;;;20.04;40.66;96825.33;108858;1264;22552;-82
2022/07/16 11:24:25;;;;;;;4.70;1.70;;;;;;;19.74;40.54;96825.67;108756;1264;22679;-82
2022/07/16 11:27:08;;;;;;;5.70;1.90;;;;;;;19.62;41.54;96826.36;108579;1264;83734;-82
2022/07/16 11:29:47;;;;;;;3.50;1.70;;;;;;;19.76;42.32;96827.77;108773;1264;22561;-82
2022/07/16 11:32:23;;;;;;;5.80;2.30;;;;;;;20.05;42.07;96829.05;108773;1264;23882;-82
2022/07/16 11:34:57;;;;;;;2.90;1.80;;;;;;;20.19;41.59;96827.13;108725;1264;22604;-82
2022/07/16 11:37:47;;;;;;;3.30;1.90;;;;;;;20.15;41.11;96827.70;108575;1264;123069;-82
2022/07/16 11:40:19;;;;;;;3.20;1.80;;;;;;;20.14;41.28;96828.69;108758;1264;22778;-82
2022/07/16 11:43:12;;;;;;;3.30;1.70;;;;;;;20.20;41.54;96827.93;108794;1264;22536;-82
2022/07/16 11:45:47;;;;;;;3.60;1.70;;;;;;;20.08;41.02;96825.23;108529;1264;115682;-82
2022/07/16 11:48:20;;;;;;;5.50;2.30;;;;;;;19.94;41.58;96827.52;108774;1264;22643;-82
2022/07/16 11:50:56;;;;;;;5.00;2.20;;;;;;;19.79;41.92;96831.08;108797;1264;22542;-82
2022/07/16 11:53:34;;;;;;;2.20;1.70;;;;;;;19.72;42.26;96829.56;108660;1264;22550;-82
2022/07/16 11:56:16;;;;;;;3.20;1.70;;;;;;;19.87;43.04;96826.05;107374;1264;1761540;-82
2022/07/16 11:58:47;;;;;;;3.40;1.80;;;;;;;20.06;42.72;96827.48;108807;1264;22564;-82
2022/07/16 12:01:31;;;;;;;4.10;2.00;;;;;;;20.07;42.04;96824.98;108805;1264;23015;-82
2022/07/16 12:04:06;;;;;;;4.60;2.00;;;;;;;20.05;42.31;96828.20;108839;1264;23948;-82
2022/07/16 12:06:45;;;;;;;3.00;1.80;;;;;;;20.07;42.22;96827.06;108642;1264;71732;-82
2022/07/16 12:09:32;;;;;;;6.80;2.00;;;;;;;20.02;41.79;96831.56;108675;1264;22529;-82
2022/07/16 12:12:12;;;;;;;3.00;1.80;;;;;;;19.84;41.51;96835.10;108804;1264;23739;-82
2022/07/16 12:15:01;;;;;;;4.20;1.70;;;;;;;19.64;41.54;96838.25;108824;1264;22537;-82